createdAt,value
2022-11-24T00:01:17.833Z,98848.38
2022-11-24T00:03:47.215Z,98846.03
2022-11-24T00:06:15.641Z,98850.66
2022-11-24T00:08:44.646Z,98848.75
2022-11-24T00:11:17.921Z,98844.06
2022-11-24T00:13:45.755Z,98841.56
2022-11-24T00:16:15.881Z,98850.00
2022-11-24T00:18:44.994Z,98847.81
2022-11-24T00:21:13.596Z,98853.25
2022-11-24T00:23:41.366Z,98849.22
2022-11-24T00:26:11.311Z,98862.06
2022-11-24T00:28:40.122Z,98870.50
2022-11-24T00:31:21.749Z,98861.16
2022-11-24T00:33:51.363Z,98871.28
2022-11-24T00:36:22.377Z,98865.63
2022-11-24T00:38:57.757Z,98869.94
2022-11-24T00:41:26.153Z,98872.72
2022-11-24T00:43:54.317Z,98866.50
2022-11-24T00:46:22.041Z,98871.59
2022-11-24T00:48:49.462Z,98876.62
2022-11-24T00:51:18.594Z,98879.72
2022-11-24T00:53:46.185Z,98883.31
2022-11-24T00:56:14.025Z,98884.22
2022-11-24T00:58:41.695Z,98897.97
2022-11-24T01:01:12.649Z,98884.19
2022-11-24T01:03:40.374Z,98893.16
2022-11-24T01:06:12.055Z,98901.91
2022-11-24T01:08:40.279Z,98895.19
2022-11-24T01:11:20.718Z,98897.47
2022-11-24T01:13:51.909Z,98898.81
2022-11-24T01:16:22.593Z,98897.34
2022-11-24T01:18:50.259Z,98892.94
2022-11-24T01:21:18.160Z,98902.87
2022-11-24T01:23:46.195Z,98895.22
2022-11-24T01:26:16.268Z,98891.47
2022-11-24T01:28:47.406Z,98900.44
2022-11-24T01:31:15.669Z,98894.75
2022-11-24T01:33:43.272Z,98899.28
2022-11-24T01:36:10.683Z,98902.53
2022-11-24T01:38:38.389Z,98899.28
2022-11-24T01:41:17.933Z,98903.41
2022-11-24T01:43:46.420Z,98908.41
2022-11-24T01:46:28.006Z,98908.41
2022-11-24T01:49:18.167Z,98912.09
2022-11-24T01:52:01.363Z,98909.34
2022-11-24T01:54:32.411Z,98912.63
2022-11-24T01:57:09.761Z,98903.87
2022-11-24T01:59:37.619Z,98903.50
2022-11-24T02:02:05.101Z,98906.06
2022-11-24T02:04:34.451Z,98901.84
2022-11-24T02:07:03.638Z,98900.44
2022-11-24T02:09:36.437Z,98903.22
2022-11-24T02:12:04.916Z,98898.31
2022-11-24T02:14:35.871Z,98911.78
2022-11-24T02:17:03.932Z,98904.59
2022-11-24T02:19:40.308Z,98910.16
2022-11-24T02:22:13.373Z,98915.78
2022-11-24T02:24:50.926Z,98909.47
2022-11-24T02:27:19.359Z,98912.34
2022-11-24T02:29:46.795Z,98916.50
2022-11-24T02:32:14.442Z,98922.06
2022-11-24T02:34:42.139Z,98924.06
2022-11-24T02:37:09.509Z,98924.13
2022-11-24T02:39:37.934Z,98926.31
2022-11-24T02:42:08.931Z,98925.09
2022-11-24T02:44:39.914Z,98927.94
2022-11-24T02:47:10.416Z,98923.69
2022-11-24T02:49:37.990Z,98915.53
2022-11-24T02:52:05.987Z,98923.47
2022-11-24T02:54:33.951Z,98918.47
2022-11-24T02:57:01.538Z,98920.09
2022-11-24T02:59:28.881Z,98920.53
2022-11-24T03:01:56.516Z,98919.75
2022-11-24T03:04:23.916Z,98927.34
2022-11-24T03:06:51.537Z,98924.56
2022-11-24T03:09:19.167Z,98927.69
2022-11-24T03:11:46.618Z,98933.09
2022-11-24T03:14:13.964Z,98929.38
2022-11-24T03:16:41.566Z,98938.25
2022-11-24T03:19:08.950Z,98942.81
2022-11-24T03:21:36.713Z,98942.53
2022-11-24T03:24:04.645Z,98946.84
2022-11-24T03:26:34.158Z,98943.53
2022-11-24T03:29:02.040Z,98944.72
2022-11-24T03:31:29.814Z,98939.25
2022-11-24T03:33:57.239Z,98932.91
2022-11-24T03:36:24.721Z,98944.56
2022-11-24T03:38:52.515Z,98942.88
2022-11-24T03:41:19.869Z,98943.03
2022-11-24T03:43:47.271Z,98938.66
2022-11-24T03:46:14.993Z,98940.87
2022-11-24T03:48:42.403Z,98935.59
2022-11-24T03:51:10.314Z,98941.41
2022-11-24T03:53:37.962Z,98929.84
2022-11-24T03:56:05.378Z,98937.69
2022-11-24T03:58:32.804Z,98943.94
2022-11-24T04:01:00.415Z,98943.25
2022-11-24T04:03:28.099Z,98943.69
2022-11-24T04:05:55.488Z,98948.50
2022-11-24T04:08:22.948Z,98945.62
2022-11-24T04:10:52.452Z,98959.53
2022-11-24T04:13:22.427Z,98953.72
2022-11-24T04:15:50.088Z,98947.91
2022-11-24T04:18:18.213Z,98957.06
2022-11-24T04:20:45.858Z,98960.91
2022-11-24T04:23:13.303Z,98965.22
2022-11-24T04:25:43.469Z,98967.78
2022-11-24T04:28:11.267Z,98972.09
2022-11-24T04:30:40.493Z,98982.38
2022-11-24T04:33:08.117Z,98978.03
2022-11-24T04:35:35.514Z,98981.91
2022-11-24T04:38:03.103Z,98985.72
2022-11-24T04:40:30.749Z,98991.50
2022-11-24T04:42:58.127Z,98982.19
2022-11-24T04:45:25.460Z,98997.25
2022-11-24T04:47:53.096Z,99007.22
2022-11-24T04:50:20.830Z,99009.22
2022-11-24T04:52:48.264Z,99006.03
2022-11-24T04:55:15.934Z,99015.34
2022-11-24T04:57:43.316Z,99019.19
2022-11-24T05:00:11.563Z,99009.13
2022-11-24T05:02:39.354Z,99027.31
2022-11-24T05:05:07.371Z,99033.16
2022-11-24T05:07:35.022Z,99027.09
2022-11-24T05:10:21.439Z,99035.41
2022-11-24T05:12:56.565Z,99041.41
2022-11-24T05:15:24.206Z,99042.16
2022-11-24T05:17:51.877Z,99050.06
2022-11-24T05:20:19.763Z,99061.38
2022-11-24T05:22:47.451Z,99064.19
2022-11-24T05:25:14.831Z,99068.72
2022-11-24T05:27:42.211Z,99065.16
2022-11-24T05:30:10.347Z,99066.62
2022-11-24T05:32:37.667Z,99063.13
2022-11-24T05:35:05.448Z,99067.56
2022-11-24T05:37:33.088Z,99069.41
2022-11-24T05:40:00.416Z,99066.19
2022-11-24T05:42:47.181Z,99074.84
2022-11-24T05:45:17.999Z,99077.41
2022-11-24T05:47:46.167Z,99072.13
2022-11-24T05:50:15.218Z,99081.78
2022-11-24T05:52:43.204Z,99070.34
2022-11-24T05:55:11.104Z,99074.06
2022-11-24T05:57:38.419Z,99081.59
2022-11-24T06:00:07.196Z,99076.63
2022-11-24T06:02:39.839Z,99079.56
2022-11-24T06:05:07.822Z,99085.31
2022-11-24T06:07:35.199Z,99093.41
2022-11-24T06:10:02.750Z,99095.94
2022-11-24T06:12:30.382Z,99105.06
2022-11-24T06:14:57.758Z,99106.22
2022-11-24T06:17:25.425Z,99111.16
2022-11-24T06:19:53.081Z,99109.87
2022-11-24T06:22:20.470Z,99117.41
2022-11-24T06:24:47.853Z,99117.44
2022-11-24T06:27:15.420Z,99124.81
2022-11-24T06:29:42.951Z,99134.84
2022-11-24T06:32:10.249Z,99129.63
2022-11-24T06:34:37.903Z,99147.94
2022-11-24T06:37:05.241Z,99146.34
2022-11-24T06:39:32.792Z,99143.66
2022-11-24T06:42:00.447Z,99143.75
2022-11-24T06:44:27.795Z,99142.72
2022-11-24T06:46:55.301Z,99149.91
2022-11-24T06:49:23.284Z,99143.06
2022-11-24T06:51:50.815Z,99143.41
2022-11-24T06:54:21.138Z,99148.78
2022-11-24T06:56:48.794Z,99144.94
2022-11-24T06:59:18.674Z,99155.91
2022-11-24T07:01:47.605Z,99156.56
2022-11-24T07:04:15.554Z,99158.09
2022-11-24T07:06:43.601Z,99159.28
2022-11-24T07:09:12.110Z,99162.91
2022-11-24T07:11:40.182Z,99165.78
2022-11-24T07:14:07.640Z,99174.88
2022-11-24T07:16:35.797Z,99178.78
2022-11-24T07:19:03.619Z,99182.88
2022-11-24T07:21:31.026Z,99182.62
2022-11-24T07:23:58.829Z,99193.22
2022-11-24T07:26:26.669Z,99186.03
2022-11-24T07:28:54.148Z,99192.81
2022-11-24T07:31:25.061Z,99198.88
2022-11-24T07:33:54.509Z,99207.34
2022-11-24T07:36:22.809Z,99202.84
2022-11-24T07:38:50.211Z,99207.13
2022-11-24T07:41:22.175Z,99199.78
2022-11-24T07:43:50.655Z,99200.59
2022-11-24T07:46:19.544Z,99204.06
2022-11-24T07:48:47.302Z,99209.19
2022-11-24T07:51:15.644Z,99213.91
2022-11-24T07:53:43.833Z,99211.47
2022-11-24T07:56:13.227Z,99210.34
2022-11-24T07:58:40.612Z,99216.41
2022-11-24T08:01:16.557Z,99219.84
2022-11-24T08:03:45.201Z,99220.94
2022-11-24T08:06:35.379Z,99222.16
2022-11-24T08:09:00.682Z,99220.47
2022-11-24T08:11:28.426Z,99221.13
2022-11-24T08:13:55.801Z,99229.00
2022-11-24T08:16:23.679Z,99220.78
2022-11-24T08:18:54.085Z,99218.84
2022-11-24T08:21:23.443Z,99219.56
2022-11-24T08:23:56.067Z,99225.03
2022-11-24T08:26:24.978Z,99232.53
2022-11-24T08:28:55.248Z,99240.22
2022-11-24T08:31:22.929Z,99236.84
2022-11-24T08:33:50.340Z,99238.84
2022-11-24T08:36:19.058Z,99245.28
2022-11-24T08:38:46.597Z,99242.16
2022-11-24T08:41:15.452Z,99246.97
2022-11-24T08:43:43.189Z,99242.34
2022-11-24T08:46:13.247Z,99241.19
2022-11-24T08:48:41.582Z,99238.47
2022-11-24T08:51:15.500Z,99233.88
2022-11-24T08:53:43.479Z,99252.38
2022-11-24T08:56:12.098Z,99245.03
2022-11-24T08:58:40.134Z,99246.28
2022-11-24T09:01:15.471Z,99241.84
2022-11-24T09:03:50.098Z,99244.72
2022-11-24T09:06:19.464Z,99261.44
2022-11-24T09:08:47.082Z,99268.00
2022-11-24T09:11:16.533Z,99260.16
2022-11-24T09:13:44.153Z,99271.19
2022-11-24T09:16:17.271Z,99277.84
2022-11-24T09:18:45.761Z,99277.37
2022-11-24T09:21:18.912Z,99274.81
2022-11-24T09:23:50.687Z,99272.41
2022-11-24T09:26:19.580Z,99278.75
2022-11-24T09:28:47.210Z,99285.72
2022-11-24T09:31:17.149Z,99275.72
2022-11-24T09:33:45.541Z,99282.59
2022-11-24T09:36:13.513Z,99278.56
2022-11-24T09:38:41.056Z,99288.94
2022-11-24T09:41:17.530Z,99290.78
2022-11-24T09:44:09.294Z,99285.22
2022-11-24T09:46:55.804Z,99285.16
2022-11-24T09:49:51.503Z,99283.66
2022-11-24T09:52:26.611Z,99284.53
2022-11-24T09:54:58.921Z,99280.75
2022-11-24T09:57:31.473Z,99286.53
2022-11-24T10:00:10.066Z,99288.81
2022-11-24T10:02:39.339Z,99280.78
2022-11-24T10:05:07.392Z,99290.63
2022-11-24T10:07:43.966Z,99282.69
2022-11-24T10:10:15.760Z,99288.56
2022-11-24T10:12:54.047Z,99285.44
2022-11-24T10:15:51.766Z,99296.91
2022-11-24T10:18:27.917Z,99302.94
2022-11-24T10:21:30.971Z,99286.84
2022-11-24T10:24:12.605Z,99298.34
2022-11-24T10:26:45.645Z,99289.84
2022-11-24T10:29:13.736Z,99296.50
2022-11-24T10:31:43.222Z,99298.13
2022-11-24T10:34:14.585Z,99293.25
2022-11-24T10:36:54.435Z,99296.31
2022-11-24T10:39:37.005Z,99286.38
2022-11-24T10:42:14.505Z,99296.59
2022-11-24T10:44:42.247Z,99289.41
2022-11-24T10:47:19.088Z,99298.06
2022-11-24T10:49:56.925Z,99306.59
2022-11-24T10:52:25.657Z,99298.16
2022-11-24T10:54:58.653Z,99312.41
2022-11-24T10:57:32.291Z,99307.31
2022-11-24T11:00:00.553Z,99319.50
2022-11-24T11:02:32.366Z,99316.09
2022-11-24T11:05:31.583Z,99321.84
2022-11-24T11:08:14.560Z,99317.91
2022-11-24T11:10:43.422Z,99319.31
2022-11-24T11:13:23.341Z,99317.56
2022-11-24T11:15:51.459Z,99323.03
2022-11-24T11:18:19.992Z,99324.69
2022-11-24T11:20:55.047Z,99329.84
2022-11-24T11:23:26.951Z,99324.22
2022-11-24T11:26:22.601Z,99316.34
2022-11-24T11:35:12.075Z,99326.09
2022-11-24T11:37:39.397Z,99333.69
2022-11-24T11:40:14.340Z,99324.94
2022-11-24T11:43:01.844Z,99331.88
2022-11-24T11:45:38.182Z,99340.03
2022-11-24T11:48:26.996Z,99339.94
2022-11-24T11:51:22.268Z,99335.22
2022-11-24T11:54:06.781Z,99333.38
2022-11-24T11:57:06.636Z,99337.00
2022-11-24T11:59:55.030Z,99342.16
2022-11-24T12:02:59.570Z,99328.63
2022-11-24T12:05:33.194Z,99338.28
2022-11-24T12:08:21.494Z,99343.06
2022-11-24T12:10:57.342Z,99343.06
2022-11-24T12:13:43.373Z,99340.19
2022-11-24T12:16:48.051Z,99329.81
2022-11-24T12:19:48.656Z,99344.09
2022-11-24T12:22:42.655Z,99343.47
2022-11-24T12:25:26.591Z,99341.28
2022-11-24T12:28:06.859Z,99351.66
2022-11-24T12:31:08.993Z,99349.50
2022-11-24T12:33:50.925Z,99341.94
2022-11-24T12:36:41.566Z,99352.63
2022-11-24T12:39:19.686Z,99345.41
2022-11-24T12:41:54.772Z,99353.66
2022-11-24T12:44:47.224Z,99357.34
2022-11-24T12:47:33.242Z,99356.91
2022-11-24T12:50:13.352Z,99366.63
2022-11-24T12:52:46.042Z,99362.63
2022-11-24T12:55:18.983Z,99367.38
2022-11-24T12:57:56.175Z,99363.69
2022-11-24T13:00:31.425Z,99364.91
2022-11-24T13:03:17.526Z,99376.19
2022-11-24T13:05:51.629Z,99366.94
2022-11-24T13:08:19.401Z,99366.25
2022-11-24T13:14:02.435Z,99367.09
2022-11-24T13:16:48.728Z,99366.50
2022-11-24T13:19:21.061Z,99361.47
2022-11-24T13:21:56.828Z,99364.88
2022-11-24T13:24:30.873Z,99366.91
2022-11-24T13:27:14.203Z,99367.38
2022-11-24T13:29:46.062Z,99376.50
2022-11-24T13:32:17.657Z,99371.09
2022-11-24T13:34:49.875Z,99376.66
2022-11-24T13:37:33.550Z,99375.41
2022-11-24T13:40:12.393Z,99375.63
2022-11-24T13:42:58.820Z,99376.19
2022-11-24T13:45:49.608Z,99379.03
2022-11-24T13:48:20.493Z,99382.25
2022-11-24T13:50:51.094Z,99385.69
2022-11-24T13:53:34.886Z,99385.41
2022-11-24T13:56:15.084Z,99381.97
2022-11-24T13:58:47.440Z,99386.53
2022-11-24T14:01:16.392Z,99389.47
2022-11-24T14:04:21.609Z,99379.75
2022-11-24T14:06:48.493Z,99394.56
2022-11-24T14:09:47.963Z,99397.59
2022-11-24T14:12:20.969Z,99392.78
2022-11-24T14:14:50.304Z,99401.13
2022-11-24T14:17:23.179Z,99407.75
2022-11-24T14:19:52.800Z,99403.03
2022-11-24T14:22:24.443Z,99401.28
2022-11-24T14:24:56.555Z,99405.84
2022-11-24T14:27:30.618Z,99402.44
2022-11-24T14:30:03.825Z,99409.16
2022-11-24T14:32:31.600Z,99401.69
2022-11-24T14:34:59.464Z,99415.22
2022-11-24T14:37:26.930Z,99415.72
2022-11-24T14:39:54.303Z,99417.69
2022-11-24T14:42:24.328Z,99431.34
2022-11-24T14:44:51.765Z,99416.31
2022-11-24T14:47:30.218Z,99432.19
2022-11-24T14:50:08.061Z,99435.53
2022-11-24T14:52:35.828Z,99439.97
2022-11-24T14:55:21.946Z,99445.78
2022-11-24T14:57:52.741Z,99440.88
2022-11-24T15:00:29.871Z,99455.38
2022-11-24T15:03:17.146Z,99454.97
2022-11-24T15:05:59.259Z,99455.06
2022-11-24T15:08:28.484Z,99456.34
2022-11-24T15:11:01.196Z,99459.94
2022-11-24T15:13:32.827Z,99465.22
2022-11-24T15:16:08.317Z,99469.22
2022-11-24T15:18:39.572Z,99477.78
2022-11-24T15:21:07.865Z,99454.50
2022-11-24T15:23:36.459Z,99474.38
2022-11-24T15:26:03.838Z,99480.47
2022-11-24T15:28:31.661Z,99476.75
2022-11-24T15:31:04.604Z,99477.75
2022-11-24T15:33:32.698Z,99485.84
2022-11-24T15:36:00.067Z,99483.41
2022-11-24T15:38:27.470Z,99480.78
2022-11-24T15:40:57.890Z,99488.78
2022-11-24T15:43:44.583Z,99494.91
2022-11-24T15:46:12.651Z,99498.56
2022-11-24T15:48:40.002Z,99492.25
2022-11-24T15:51:11.953Z,99507.53
2022-11-24T15:53:42.303Z,99507.75
2022-11-24T15:56:16.015Z,99505.97
2022-11-24T15:58:43.609Z,99515.53
2022-11-24T16:01:10.940Z,99515.13
2022-11-24T16:03:47.150Z,99514.09
2022-11-24T16:06:24.115Z,99523.59
2022-11-24T16:08:53.985Z,99526.34
2022-11-24T16:11:21.874Z,99526.19
2022-11-24T16:13:53.080Z,99527.19
2022-11-24T16:16:22.954Z,99526.66
2022-11-24T16:18:50.761Z,99520.72
2022-11-24T16:21:18.198Z,99526.97
2022-11-24T16:23:46.563Z,99529.78
2022-11-24T16:26:13.902Z,99528.81
2022-11-24T16:28:42.312Z,99531.13
2022-11-24T16:31:10.043Z,99531.75
2022-11-24T16:33:40.668Z,99528.37
2022-11-24T16:36:08.903Z,99525.34
2022-11-24T16:38:36.682Z,99532.41
2022-11-24T16:41:04.356Z,99541.69
2022-11-24T16:43:32.181Z,99542.13
2022-11-24T16:46:09.075Z,99543.94
2022-11-24T16:48:37.144Z,99545.81
2022-11-24T16:51:06.761Z,99541.53
2022-11-24T16:53:34.148Z,99551.13
2022-11-24T16:56:01.808Z,99555.00
2022-11-24T16:58:30.104Z,99559.06
2022-11-24T17:01:05.381Z,99552.78
2022-11-24T17:03:33.866Z,99557.22
2022-11-24T17:06:01.273Z,99559.75
2022-11-24T17:08:36.184Z,99563.31
2022-11-24T17:11:14.896Z,99567.75
2022-11-24T17:13:42.655Z,99564.03
2022-11-24T17:16:13.681Z,99570.31
2022-11-24T17:18:41.847Z,99569.91
2022-11-24T17:21:18.712Z,99580.88
2022-11-24T17:23:49.137Z,99582.31
2022-11-24T17:26:17.513Z,99579.69
2022-11-24T17:28:45.097Z,99596.72
2022-11-24T17:31:26.044Z,99584.78
2022-11-24T17:33:56.467Z,99597.63
2022-11-24T17:36:24.581Z,99599.84
2022-11-24T17:38:52.599Z,99591.59
2022-11-24T17:41:20.782Z,99597.37
2022-11-24T17:43:50.601Z,99598.66
2022-11-24T17:46:18.836Z,99602.44
2022-11-24T17:48:47.342Z,99610.75
2022-11-24T17:51:17.904Z,99612.72
2022-11-24T17:53:47.318Z,99621.25
2022-11-24T17:56:17.387Z,99625.88
2022-11-24T17:58:45.100Z,99627.03
2022-11-24T18:01:13.715Z,99615.75
2022-11-24T18:03:41.948Z,99633.06
2022-11-24T18:06:12.037Z,99635.44
2022-11-24T18:08:41.398Z,99642.16
2022-11-24T18:11:22.680Z,99651.69
2022-11-24T18:14:01.224Z,99647.50
2022-11-24T18:16:31.454Z,99654.00
2022-11-24T18:19:10.744Z,99659.22
2022-11-24T18:21:40.941Z,99661.53
2022-11-24T18:24:10.336Z,99659.84
2022-11-24T18:26:39.140Z,99672.19
2022-11-24T18:29:08.184Z,99673.06
2022-11-24T18:31:36.191Z,99665.94
2022-11-24T18:34:05.691Z,99676.88
2022-11-24T18:36:37.743Z,99666.22
2022-11-24T18:39:07.581Z,99668.75
2022-11-24T18:41:35.858Z,99673.84
2022-11-24T18:44:07.747Z,99672.69
2022-11-24T18:46:36.494Z,99679.44
2022-11-24T18:49:04.797Z,99681.94
2022-11-24T18:51:32.893Z,99678.75
2022-11-24T18:54:04.225Z,99676.62
2022-11-24T18:56:34.741Z,99676.44
2022-11-24T18:59:04.186Z,99687.91
2022-11-24T19:01:32.362Z,99686.88
2022-11-24T19:04:02.097Z,99690.63
2022-11-24T19:06:35.351Z,99685.69
2022-11-24T19:09:08.709Z,99690.25
2022-11-24T19:11:38.704Z,99694.19
2022-11-24T19:14:09.130Z,99703.00
2022-11-24T19:16:38.127Z,99702.91
2022-11-24T19:19:06.400Z,99704.84
2022-11-24T19:21:37.691Z,99709.78
2022-11-24T19:24:07.276Z,99714.19
2022-11-24T19:26:35.457Z,99715.94
2022-11-24T19:29:04.577Z,99722.16
2022-11-24T19:31:33.853Z,99723.97
2022-11-24T19:34:03.120Z,99728.56
2022-11-24T19:36:30.856Z,99734.56
2022-11-24T19:39:00.292Z,99740.59
2022-11-24T19:41:30.214Z,99745.66
2022-11-24T19:43:59.140Z,99746.22
2022-11-24T19:46:29.541Z,99742.94
2022-11-24T19:49:00.242Z,99747.81
2022-11-24T19:51:34.005Z,99739.19
2022-11-24T19:54:03.180Z,99743.59
2022-11-24T19:56:35.687Z,99751.34
2022-11-24T19:59:05.697Z,99752.13
2022-11-24T20:01:41.689Z,99761.56
2022-11-24T20:04:12.714Z,99759.19
2022-11-24T20:06:42.623Z,99767.06
2022-11-24T20:09:15.894Z,99777.41
2022-11-24T20:11:44.409Z,99776.34
2022-11-24T20:14:14.582Z,99786.19
2022-11-24T20:16:42.728Z,99775.81
2022-11-24T20:19:13.398Z,99781.03
2022-11-24T20:21:47.040Z,99786.56
2022-11-24T20:24:16.653Z,99784.91
2022-11-24T20:26:50.740Z,99792.66
2022-11-24T20:29:19.358Z,99799.47
2022-11-24T20:31:49.821Z,99799.06
2022-11-24T20:34:23.896Z,99804.66
2022-11-24T20:36:53.491Z,99797.06
2022-11-24T20:39:26.284Z,99806.44
2022-11-24T20:41:56.054Z,99808.25
2022-11-24T20:44:25.325Z,99811.03
2022-11-24T20:46:56.226Z,99813.94
2022-11-24T20:49:25.452Z,99821.38
2022-11-24T20:51:55.363Z,99821.25
2022-11-24T20:54:23.873Z,99816.13
2022-11-24T20:56:51.846Z,99822.12
2022-11-24T20:59:22.252Z,99827.88
2022-11-24T21:01:51.518Z,99819.25
2022-11-24T21:04:25.762Z,99832.09
2022-11-24T21:06:53.357Z,99828.56
2022-11-24T21:09:21.759Z,99833.87
2022-11-24T21:11:49.479Z,99838.69
2022-11-24T21:14:16.988Z,99829.22
2022-11-24T21:16:45.343Z,99832.38
2022-11-24T21:19:14.977Z,99841.72
2022-11-24T21:21:43.376Z,99832.19
2022-11-24T21:24:16.462Z,99840.69
2022-11-24T21:26:47.748Z,99833.53
2022-11-24T21:29:22.371Z,99844.72
2022-11-24T21:31:51.390Z,99836.25
2022-11-24T21:34:19.460Z,99842.47
2022-11-24T21:36:47.897Z,99848.69
2022-11-24T21:39:15.831Z,99841.28
2022-11-24T21:41:44.081Z,99842.38
2022-11-24T21:44:13.430Z,99835.22
2022-11-24T21:46:45.949Z,99843.44
2022-11-24T21:49:18.652Z,99840.37
2022-11-24T21:51:45.970Z,99845.81
2022-11-24T21:54:13.293Z,99848.81
2022-11-24T21:56:40.961Z,99845.59
2022-11-24T21:59:08.618Z,99851.75
2022-11-24T22:01:35.954Z,99851.13
2022-11-24T22:04:03.614Z,99859.03
2022-11-24T22:06:33.206Z,99853.56
2022-11-24T22:09:01.728Z,99864.59
2022-11-24T22:11:29.317Z,99864.00
2022-11-24T22:13:56.881Z,99876.22
2022-11-24T22:16:24.928Z,99882.28
2022-11-24T22:18:52.804Z,99881.13
2022-11-24T22:21:29.981Z,99880.75
2022-11-24T22:23:57.672Z,99889.53
2022-11-24T22:26:25.591Z,99890.03
2022-11-24T22:28:57.076Z,99894.31
2022-11-24T22:31:29.488Z,99898.81
2022-11-24T22:33:57.787Z,99894.13
2022-11-24T22:36:27.597Z,99891.25
2022-11-24T22:38:56.198Z,99896.56
2022-11-24T22:41:23.838Z,99904.22
2022-11-24T22:43:51.603Z,99911.16
2022-11-24T22:46:21.118Z,99917.00
2022-11-24T22:48:49.922Z,99911.09
2022-11-24T22:51:23.513Z,99915.31
2022-11-24T22:53:53.428Z,99915.34
2022-11-24T22:56:21.541Z,99916.66
2022-11-24T22:58:48.956Z,99918.03
2022-11-24T23:01:21.221Z,99919.22
2022-11-24T23:03:49.472Z,99924.22
2022-11-24T23:06:18.895Z,99926.41
2022-11-24T23:08:46.657Z,99926.81
2022-11-24T23:11:17.726Z,99922.16
2022-11-24T23:13:45.053Z,99923.31
2022-11-24T23:16:17.626Z,99922.25
2022-11-24T23:18:49.878Z,99916.19
2022-11-24T23:21:23.036Z,99918.94
2022-11-24T23:23:51.201Z,99920.16
2022-11-24T23:26:22.150Z,99928.28
2022-11-24T23:28:49.515Z,99922.75
2022-11-24T23:31:20.767Z,99924.97
2022-11-24T23:33:48.265Z,99925.37
2022-11-24T23:36:17.481Z,99928.75
2022-11-24T23:38:45.449Z,99928.75
2022-11-24T23:41:31.876Z,99936.44
2022-11-24T23:44:00.150Z,99945.06
2022-11-24T23:46:28.105Z,99930.13
2022-11-24T23:48:56.332Z,99942.25
2022-11-24T23:51:26.340Z,99936.84
2022-11-24T23:53:54.346Z,99942.53
2022-11-24T23:56:26.502Z,99943.88
2022-11-24T23:58:54.241Z,99945.41
